createdAt,value
2017-10-16T00:00:00.892Z,10.36
2017-10-16T00:02:27.126Z,10.26
2017-10-16T00:04:53.373Z,10.25
2017-10-16T00:07:19.612Z,10.31
2017-10-16T00:09:45.815Z,10.30
2017-10-16T00:12:12.050Z,10.18
2017-10-16T00:14:38.274Z,10.13
2017-10-16T00:17:04.541Z,10.06
2017-10-16T00:19:30.776Z,9.99
2017-10-16T00:21:57.004Z,10.03
2017-10-16T00:24:23.238Z,9.93
2017-10-16T00:26:49.433Z,10.02
2017-10-16T00:29:15.657Z,9.94
2017-10-16T00:31:41.908Z,9.87
2017-10-16T00:34:08.126Z,9.87
2017-10-16T00:36:34.361Z,9.88
2017-10-16T00:39:00.584Z,9.91
2017-10-16T00:41:26.869Z,9.85
2017-10-16T00:43:53.077Z,9.80
2017-10-16T00:46:19.282Z,9.78
2017-10-16T00:48:45.624Z,9.81
2017-10-16T00:51:11.860Z,9.76
2017-10-16T00:53:38.133Z,9.77
2017-10-16T00:56:04.365Z,9.82
2017-10-16T00:58:30.585Z,9.79
2017-10-16T01:00:56.826Z,9.69
2017-10-16T01:03:23.046Z,9.52
2017-10-16T01:05:49.291Z,9.47
2017-10-16T01:08:15.527Z,9.44
2017-10-16T01:10:41.765Z,9.35
2017-10-16T01:13:08.013Z,9.37
2017-10-16T01:15:34.249Z,9.51
2017-10-16T01:18:00.510Z,9.51
2017-10-16T01:20:26.719Z,9.57
2017-10-16T01:22:52.936Z,9.62
2017-10-16T01:25:19.137Z,9.67
2017-10-16T01:27:45.367Z,9.85
2017-10-16T01:30:11.611Z,9.81
2017-10-16T01:32:37.848Z,9.73
2017-10-16T01:35:04.075Z,9.60
2017-10-16T01:37:30.479Z,9.64
2017-10-16T01:39:56.693Z,9.63
2017-10-16T01:42:22.960Z,9.49
2017-10-16T01:44:49.167Z,9.51
2017-10-16T01:47:15.398Z,9.49
2017-10-16T01:49:41.753Z,9.42
2017-10-16T01:52:07.983Z,9.29
2017-10-16T01:54:34.241Z,9.25
2017-10-16T01:57:00.456Z,9.25
2017-10-16T01:59:26.691Z,9.12
2017-10-16T02:01:52.899Z,9.07
2017-10-16T02:04:19.135Z,9.01
2017-10-16T02:06:45.382Z,9.01
2017-10-16T02:09:11.600Z,8.91
2017-10-16T02:11:37.823Z,8.87
2017-10-16T02:14:04.046Z,8.85
2017-10-16T02:16:30.271Z,8.83
2017-10-16T02:18:56.498Z,8.75
2017-10-16T02:21:22.705Z,8.69
2017-10-16T02:23:48.920Z,8.75
2017-10-16T02:26:15.160Z,8.82
2017-10-16T02:28:41.396Z,8.95
2017-10-16T02:31:07.658Z,8.99
2017-10-16T02:33:33.897Z,9.03
2017-10-16T02:36:00.166Z,9.02
2017-10-16T02:38:26.400Z,9.07
2017-10-16T02:40:52.635Z,9.08
2017-10-16T02:43:18.904Z,9.04
2017-10-16T02:45:45.147Z,8.94
2017-10-16T02:48:11.373Z,8.91
2017-10-16T02:50:37.618Z,8.88
2017-10-16T02:53:03.834Z,8.92
2017-10-16T02:55:30.061Z,8.86
2017-10-16T02:57:56.311Z,8.79
2017-10-16T03:00:22.539Z,8.79
2017-10-16T03:02:48.797Z,8.91
2017-10-16T03:05:15.037Z,9.00
2017-10-16T03:07:41.320Z,8.92
2017-10-16T03:10:07.553Z,8.93
2017-10-16T03:12:33.788Z,8.86
2017-10-16T03:15:00.013Z,8.73
2017-10-16T03:17:26.243Z,8.72
2017-10-16T03:19:52.486Z,8.68
2017-10-16T03:22:18.722Z,8.66
2017-10-16T03:24:44.952Z,8.67
2017-10-16T03:27:11.192Z,8.76
2017-10-16T03:29:37.430Z,8.76
2017-10-16T03:32:03.696Z,8.67
2017-10-16T03:34:29.925Z,8.57
2017-10-16T03:36:56.167Z,8.49
2017-10-16T03:39:22.408Z,8.43
2017-10-16T03:41:48.628Z,8.49
2017-10-16T03:44:14.869Z,8.51
2017-10-16T03:46:41.194Z,8.44
2017-10-16T03:49:07.422Z,8.33
2017-10-16T03:51:33.649Z,8.28
2017-10-16T03:53:59.870Z,8.24
2017-10-16T03:56:26.130Z,8.31
2017-10-16T03:58:52.368Z,8.37
2017-10-16T04:01:18.588Z,8.26
2017-10-16T04:03:44.828Z,8.16
2017-10-16T04:06:11.062Z,8.21
2017-10-16T04:08:37.341Z,8.10
2017-10-16T04:11:03.594Z,8.04
2017-10-16T04:13:29.873Z,8.01
2017-10-16T04:15:56.163Z,7.99
2017-10-16T04:18:22.397Z,8.00
2017-10-16T04:20:48.686Z,8.00
2017-10-16T04:23:14.939Z,8.32
2017-10-16T04:25:41.169Z,8.24
2017-10-16T04:28:07.413Z,8.09
2017-10-16T04:30:33.642Z,7.98
2017-10-16T04:32:59.867Z,7.97
2017-10-16T04:35:26.120Z,7.96
2017-10-16T04:37:52.361Z,8.16
2017-10-16T04:40:18.586Z,8.21
2017-10-16T04:42:44.824Z,8.23
2017-10-16T04:45:11.086Z,8.25
2017-10-16T04:47:37.319Z,8.26
2017-10-16T04:50:03.542Z,8.25
2017-10-16T04:52:29.785Z,8.29
2017-10-16T04:54:56.014Z,8.30
2017-10-16T04:57:22.278Z,8.30
2017-10-16T04:59:48.521Z,8.34
2017-10-16T05:02:14.768Z,8.46
2017-10-16T05:04:41.012Z,8.65
2017-10-16T05:07:07.259Z,8.91
2017-10-16T05:09:33.604Z,9.35
2017-10-16T05:11:59.851Z,9.94
2017-10-16T05:14:26.082Z,10.48
2017-10-16T05:16:52.322Z,10.60
2017-10-16T05:19:18.576Z,10.79
2017-10-16T05:21:44.806Z,11.68
2017-10-16T05:24:11.052Z,13.01
2017-10-16T05:26:37.277Z,13.89
2017-10-16T05:29:03.538Z,14.05
2017-10-16T05:31:29.802Z,13.96
2017-10-16T05:33:56.042Z,14.22
2017-10-16T05:36:22.283Z,14.70
2017-10-16T05:38:48.508Z,15.48
2017-10-16T05:41:14.739Z,16.39
2017-10-16T05:43:40.986Z,17.01
2017-10-16T05:46:07.257Z,18.06
2017-10-16T05:48:33.482Z,18.13
2017-10-16T05:50:59.707Z,18.91
2017-10-16T05:53:25.970Z,19.11
2017-10-16T05:55:52.212Z,19.25
2017-10-16T05:58:18.426Z,19.74
2017-10-16T06:00:44.651Z,19.62
2017-10-16T06:03:10.874Z,19.58
2017-10-16T06:05:37.104Z,19.77
2017-10-16T06:08:03.335Z,19.91
2017-10-16T06:10:29.563Z,20.75
2017-10-16T06:12:55.790Z,21.48
2017-10-16T06:15:22.021Z,22.06
2017-10-16T06:17:48.287Z,21.61
2017-10-16T06:20:14.531Z,21.89
2017-10-16T06:22:40.772Z,22.05
2017-10-16T06:25:07.019Z,21.77
2017-10-16T06:27:33.259Z,22.71
2017-10-16T06:29:59.510Z,23.24
2017-10-16T06:32:25.780Z,23.59
2017-10-16T06:34:52.015Z,23.92
2017-10-16T06:37:18.419Z,24.68
2017-10-16T06:39:44.638Z,24.27
2017-10-16T06:42:10.879Z,24.12
2017-10-16T06:44:37.122Z,23.73
2017-10-16T06:47:03.371Z,23.54
2017-10-16T06:49:29.613Z,23.98
2017-10-16T06:51:55.831Z,24.15
2017-10-16T06:54:22.099Z,24.58
2017-10-16T06:56:48.486Z,24.76
2017-10-16T06:59:14.762Z,25.07
2017-10-16T07:01:40.976Z,24.90
2017-10-16T07:04:07.197Z,24.81
2017-10-16T07:06:33.474Z,25.18
2017-10-16T07:08:59.767Z,26.38
2017-10-16T07:11:26.059Z,27.06
2017-10-16T07:13:52.344Z,26.74
2017-10-16T07:16:18.629Z,26.15
2017-10-16T07:18:44.941Z,26.66
2017-10-16T07:21:11.229Z,27.00
2017-10-16T07:23:37.526Z,26.50
2017-10-16T07:26:03.811Z,26.35
2017-10-16T07:28:30.069Z,26.57
2017-10-16T07:30:56.353Z,27.14
2017-10-16T07:33:22.633Z,26.32
2017-10-16T07:35:48.930Z,27.02
2017-10-16T07:38:15.217Z,26.80
2017-10-16T07:40:41.500Z,26.50
2017-10-16T07:43:07.810Z,27.74
2017-10-16T07:45:34.092Z,27.95
2017-10-16T07:48:00.350Z,27.99
2017-10-16T07:50:26.744Z,29.39
2017-10-16T07:52:53.004Z,29.09
2017-10-16T07:55:19.405Z,28.71
2017-10-16T07:57:45.703Z,30.02
2017-10-16T08:00:11.985Z,29.63
2017-10-16T08:02:38.260Z,28.95
2017-10-16T08:05:04.525Z,29.35
2017-10-16T08:07:30.847Z,29.96
2017-10-16T08:09:57.118Z,30.43
2017-10-16T08:12:23.383Z,30.08
2017-10-16T08:14:49.643Z,30.19
2017-10-16T08:17:15.922Z,30.03
2017-10-16T08:19:42.287Z,30.53
2017-10-16T08:22:08.567Z,30.34
2017-10-16T08:24:34.846Z,30.47
2017-10-16T08:27:01.114Z,31.18
2017-10-16T08:29:27.396Z,32.65
2017-10-16T08:31:53.734Z,32.33
2017-10-16T08:34:20.009Z,32.18
2017-10-16T08:36:46.256Z,31.93
2017-10-16T08:39:12.564Z,31.88
2017-10-16T08:41:38.829Z,32.11
2017-10-16T08:44:05.224Z,31.85
2017-10-16T08:46:31.503Z,31.56
2017-10-16T08:48:57.778Z,32.10
2017-10-16T08:51:24.040Z,31.82
2017-10-16T08:53:50.313Z,31.86
2017-10-16T08:56:16.580Z,32.25
2017-10-16T08:58:42.876Z,32.40
2017-10-16T09:01:09.155Z,32.27
2017-10-16T09:03:35.472Z,33.14
2017-10-16T09:06:01.745Z,34.12
2017-10-16T09:08:28.012Z,34.15
2017-10-16T09:10:54.305Z,33.27
2017-10-16T09:13:20.587Z,34.02
2017-10-16T09:15:46.909Z,34.74
2017-10-16T09:18:13.232Z,34.44
2017-10-16T09:20:39.509Z,34.54
2017-10-16T09:23:05.781Z,35.31
2017-10-16T09:25:32.049Z,35.33
2017-10-16T09:27:58.351Z,34.34
2017-10-16T09:30:24.795Z,34.31
2017-10-16T09:32:51.072Z,33.43
2017-10-16T09:35:17.355Z,33.07
2017-10-16T09:37:43.625Z,33.14
2017-10-16T09:40:09.917Z,33.00
2017-10-16T09:42:36.189Z,33.25
2017-10-16T09:45:02.460Z,32.94
2017-10-16T09:47:28.809Z,33.27
2017-10-16T09:49:55.087Z,32.99
2017-10-16T09:52:21.391Z,33.91
2017-10-16T09:54:47.666Z,33.41
2017-10-16T09:57:13.931Z,33.60
2017-10-16T09:59:40.199Z,34.27
2017-10-16T10:02:06.457Z,34.19
2017-10-16T10:04:32.832Z,33.18
2017-10-16T10:06:59.095Z,33.63
2017-10-16T10:09:25.391Z,32.78
2017-10-16T10:11:51.652Z,33.66
2017-10-16T10:14:17.930Z,32.85
2017-10-16T10:16:44.246Z,33.34
2017-10-16T10:19:10.528Z,33.32
2017-10-16T10:21:36.793Z,32.22
2017-10-16T10:24:03.060Z,32.76
2017-10-16T10:26:29.326Z,32.90
2017-10-16T10:28:55.605Z,32.50
2017-10-16T10:31:21.945Z,32.63
2017-10-16T10:33:48.252Z,32.17
2017-10-16T10:36:14.513Z,31.64
2017-10-16T10:38:40.787Z,32.22
2017-10-16T10:41:07.098Z,33.20
2017-10-16T10:43:33.362Z,32.97
2017-10-16T10:45:59.615Z,33.67
2017-10-16T10:48:25.876Z,33.51
2017-10-16T10:50:52.135Z,33.18
2017-10-16T10:53:18.400Z,33.14
2017-10-16T10:55:44.667Z,33.35
2017-10-16T10:58:10.923Z,33.87
2017-10-16T11:00:37.197Z,32.82
2017-10-16T11:03:03.453Z,33.64
2017-10-16T11:05:29.765Z,33.82
2017-10-16T11:07:56.037Z,33.00
2017-10-16T11:10:22.316Z,32.43
2017-10-16T11:12:48.637Z,32.49
2017-10-16T11:15:14.892Z,32.65
2017-10-16T11:17:41.178Z,33.08
2017-10-16T11:20:07.448Z,32.88
2017-10-16T11:22:33.712Z,33.47
2017-10-16T11:25:00.009Z,33.68
2017-10-16T11:27:26.289Z,32.94
2017-10-16T11:29:52.589Z,33.51
2017-10-16T11:32:18.864Z,34.40
2017-10-16T11:34:45.119Z,34.16
2017-10-16T11:37:11.374Z,33.47
2017-10-16T11:39:37.637Z,32.89
2017-10-16T11:42:03.915Z,32.93
2017-10-16T11:44:30.195Z,31.67
2017-10-16T11:46:56.453Z,30.96
2017-10-16T11:49:22.781Z,31.42
2017-10-16T11:51:49.099Z,31.48
2017-10-16T11:54:15.560Z,32.60
2017-10-16T11:56:41.857Z,33.38
2017-10-16T11:59:08.123Z,33.88
2017-10-16T12:01:34.384Z,33.94
2017-10-16T12:04:00.666Z,33.51
2017-10-16T12:06:26.932Z,33.42
2017-10-16T12:08:53.220Z,34.46
2017-10-16T12:11:19.497Z,35.65
2017-10-16T12:13:45.794Z,35.48
2017-10-16T12:16:12.067Z,35.39
2017-10-16T12:18:38.355Z,35.58
2017-10-16T12:21:04.774Z,36.40
2017-10-16T12:23:31.037Z,35.92
2017-10-16T12:25:57.298Z,35.14
2017-10-16T12:28:23.604Z,35.38
2017-10-16T12:30:49.872Z,34.93
2017-10-16T12:33:16.131Z,35.17
2017-10-16T12:35:42.401Z,34.99
2017-10-16T12:38:08.696Z,34.28
2017-10-16T12:40:34.956Z,34.31
2017-10-16T12:43:01.216Z,34.29
2017-10-16T12:45:27.528Z,34.03
2017-10-16T12:47:53.798Z,34.21
2017-10-16T12:50:20.153Z,34.39
2017-10-16T12:52:46.422Z,34.80
2017-10-16T12:55:12.829Z,34.17
2017-10-16T12:57:39.094Z,34.63
2017-10-16T13:00:05.366Z,34.78
2017-10-16T13:02:31.612Z,34.97
2017-10-16T13:04:58.058Z,34.56
2017-10-16T13:07:26.183Z,34.59
2017-10-16T13:09:53.025Z,33.45
2017-10-16T13:12:19.628Z,32.84
2017-10-16T13:14:45.915Z,32.57
2017-10-16T13:17:12.217Z,33.26
2017-10-16T13:19:38.617Z,33.63
2017-10-16T13:22:04.929Z,32.53
2017-10-16T13:24:31.219Z,31.57
2017-10-16T13:26:57.486Z,30.01
2017-10-16T13:29:23.805Z,29.16
2017-10-16T13:31:50.073Z,27.84
2017-10-16T13:34:16.329Z,27.26
2017-10-16T13:36:42.641Z,26.95
2017-10-16T13:39:09.020Z,26.62
2017-10-16T13:41:35.422Z,26.05
2017-10-16T13:44:01.709Z,25.47
2017-10-16T13:46:28.098Z,25.18
2017-10-16T13:48:54.408Z,24.98
2017-10-16T13:51:20.717Z,24.64
2017-10-16T13:53:47.044Z,24.56
2017-10-16T13:56:13.344Z,24.54
2017-10-16T13:58:39.622Z,24.67
2017-10-16T14:01:05.923Z,24.59
2017-10-16T14:03:32.199Z,24.64
2017-10-16T14:05:58.585Z,24.56
2017-10-16T14:08:24.883Z,24.59
2017-10-16T14:10:51.225Z,24.62
2017-10-16T14:13:17.497Z,24.58
2017-10-16T14:15:43.792Z,24.57
2017-10-16T14:18:10.111Z,24.47
2017-10-16T14:20:36.406Z,24.33
2017-10-16T14:23:02.689Z,24.18
2017-10-16T14:25:28.966Z,24.20
2017-10-16T14:27:55.414Z,24.04
2017-10-16T14:30:21.759Z,23.99
2017-10-16T14:32:48.047Z,23.90
2017-10-16T14:35:14.339Z,23.79
2017-10-16T14:37:40.617Z,23.77
2017-10-16T14:40:06.902Z,23.75
2017-10-16T14:42:33.208Z,23.65
2017-10-16T14:44:59.511Z,23.56
2017-10-16T14:47:25.808Z,23.42
2017-10-16T14:49:52.084Z,23.26
2017-10-16T14:52:18.376Z,23.19
2017-10-16T14:54:44.657Z,23.11
2017-10-16T14:57:10.952Z,23.05
2017-10-16T14:59:37.285Z,22.92
2017-10-16T15:02:03.548Z,22.74
2017-10-16T15:04:29.805Z,22.55
2017-10-16T15:06:56.113Z,22.32
2017-10-16T15:09:22.403Z,22.07
2017-10-16T15:11:48.665Z,21.73
2017-10-16T15:14:14.942Z,21.52
2017-10-16T15:16:41.217Z,21.22
2017-10-16T15:19:07.503Z,20.90
2017-10-16T15:21:33.820Z,20.78
2017-10-16T15:24:00.088Z,20.56
2017-10-16T15:26:26.354Z,20.32
2017-10-16T15:28:52.630Z,20.11
2017-10-16T15:31:18.952Z,19.80
2017-10-16T15:33:45.217Z,19.64
2017-10-16T15:36:11.466Z,19.51
2017-10-16T15:38:37.747Z,19.39
2017-10-16T15:41:04.027Z,19.22
2017-10-16T15:43:30.346Z,19.10
2017-10-16T15:45:56.606Z,18.97
2017-10-16T15:48:22.926Z,18.79
2017-10-16T15:50:49.204Z,18.59
2017-10-16T15:53:15.459Z,18.44
2017-10-16T15:55:41.712Z,18.27
2017-10-16T15:58:08.019Z,18.18
2017-10-16T16:00:34.300Z,18.13
2017-10-16T16:03:00.588Z,18.05
2017-10-16T16:05:26.838Z,17.98
2017-10-16T16:07:53.102Z,17.91
2017-10-16T16:10:19.377Z,17.77
2017-10-16T16:12:45.691Z,17.68
2017-10-16T16:15:11.951Z,17.55
2017-10-16T16:17:38.226Z,17.36
2017-10-16T16:20:04.548Z,17.26
2017-10-16T16:22:30.832Z,17.26
2017-10-16T16:24:57.141Z,17.33
2017-10-16T16:27:23.412Z,17.33
2017-10-16T16:29:49.686Z,17.26
2017-10-16T16:32:16.118Z,17.13
2017-10-16T16:34:42.390Z,17.01
2017-10-16T16:37:08.726Z,16.99
2017-10-16T16:39:34.986Z,16.98
2017-10-16T16:42:01.269Z,16.81
2017-10-16T16:44:27.550Z,16.69
2017-10-16T16:46:53.834Z,16.59
2017-10-16T16:49:20.155Z,16.51
2017-10-16T16:51:46.415Z,16.42
2017-10-16T16:54:13.037Z,16.36
2017-10-16T16:56:39.489Z,16.22
2017-10-16T16:59:06.101Z,16.15
2017-10-16T17:01:32.607Z,15.91
2017-10-16T17:03:59.048Z,15.80
2017-10-16T17:06:25.564Z,15.78
2017-10-16T17:08:51.853Z,15.95
2017-10-16T17:11:18.449Z,15.95
2017-10-16T17:13:45.091Z,15.97
2017-10-16T17:16:11.478Z,15.89
2017-10-16T17:18:37.772Z,15.84
2017-10-16T17:21:04.032Z,15.78
2017-10-16T17:23:30.305Z,15.64
2017-10-16T17:25:56.572Z,15.67
2017-10-16T17:28:22.854Z,15.69
2017-10-16T17:30:49.125Z,15.61
2017-10-16T17:33:15.398Z,15.54
2017-10-16T17:35:41.665Z,15.42
2017-10-16T17:38:07.945Z,15.35
2017-10-16T17:40:34.287Z,15.12
2017-10-16T17:43:00.545Z,14.88
2017-10-16T17:45:26.804Z,14.81
2017-10-16T17:47:53.112Z,14.84
2017-10-16T17:50:19.389Z,14.94
2017-10-16T17:52:45.782Z,14.84
2017-10-16T17:55:12.043Z,14.82
2017-10-16T17:57:38.291Z,14.70
2017-10-16T18:00:04.597Z,14.58
2017-10-16T18:02:30.861Z,14.39
2017-10-16T18:04:57.141Z,14.34
2017-10-16T18:07:23.408Z,14.29
2017-10-16T18:09:49.659Z,14.36
2017-10-16T18:12:15.969Z,14.17
2017-10-16T18:14:42.229Z,14.11
2017-10-16T18:17:08.502Z,14.03
2017-10-16T18:19:34.773Z,14.07
2017-10-16T18:22:01.028Z,13.93
2017-10-16T18:24:27.381Z,13.95
2017-10-16T18:26:53.648Z,13.92
2017-10-16T18:29:19.911Z,13.99
2017-10-16T18:31:46.181Z,13.94
2017-10-16T18:34:12.443Z,13.81
2017-10-16T18:36:38.722Z,13.73
2017-10-16T18:39:05.184Z,13.56
2017-10-16T18:41:31.459Z,13.55
2017-10-16T18:43:57.721Z,13.46
2017-10-16T18:46:24.059Z,13.39
2017-10-16T18:48:50.364Z,13.25
2017-10-16T18:51:16.624Z,13.31
2017-10-16T18:53:42.898Z,13.19
2017-10-16T18:56:09.162Z,13.13
2017-10-16T18:58:35.427Z,13.08
2017-10-16T19:01:01.722Z,12.95
2017-10-16T19:03:27.989Z,12.89
2017-10-16T19:05:54.267Z,12.90
2017-10-16T19:08:20.605Z,12.76
2017-10-16T19:10:46.879Z,12.71
2017-10-16T19:13:13.147Z,12.65
2017-10-16T19:15:39.452Z,12.66
2017-10-16T19:18:05.724Z,12.59
2017-10-16T19:20:31.976Z,12.57
2017-10-16T19:22:58.251Z,12.46
2017-10-16T19:25:24.536Z,12.38
2017-10-16T19:27:50.839Z,12.36
2017-10-16T19:30:17.105Z,12.44
2017-10-16T19:32:43.423Z,12.39
2017-10-16T19:35:09.775Z,12.33
2017-10-16T19:37:36.025Z,12.22
2017-10-16T19:40:02.312Z,12.13
2017-10-16T19:42:28.587Z,12.12
2017-10-16T19:44:54.977Z,12.05
2017-10-16T19:47:21.234Z,12.03
2017-10-16T19:49:47.467Z,11.94
2017-10-16T19:52:13.720Z,11.90
2017-10-16T19:54:39.992Z,11.82
2017-10-16T19:57:06.253Z,11.71
2017-10-16T19:59:32.529Z,11.77
2017-10-16T20:01:58.797Z,11.68
2017-10-16T20:04:25.029Z,11.68
2017-10-16T20:06:51.382Z,11.54
2017-10-16T20:09:17.565Z,11.57
2017-10-16T20:11:43.839Z,11.65
2017-10-16T20:14:10.028Z,11.56
2017-10-16T20:16:36.205Z,11.43
2017-10-16T20:19:02.386Z,11.41
2017-10-16T20:21:28.579Z,11.38
2017-10-16T20:23:54.813Z,11.37
2017-10-16T20:26:21.001Z,11.26
2017-10-16T20:28:47.178Z,11.18
2017-10-16T20:31:13.366Z,11.24
2017-10-16T20:33:39.564Z,11.26
2017-10-16T20:36:05.783Z,11.17
2017-10-16T20:38:31.962Z,11.24
2017-10-16T20:40:58.164Z,11.21
2017-10-16T20:43:24.381Z,11.16
2017-10-16T20:45:50.573Z,11.08
2017-10-16T20:48:16.768Z,11.25
2017-10-16T20:50:42.936Z,11.10
2017-10-16T20:53:09.156Z,11.02
2017-10-16T20:55:35.358Z,11.01
2017-10-16T20:58:01.533Z,10.96
2017-10-16T21:00:27.739Z,10.94
2017-10-16T21:02:53.994Z,10.91
2017-10-16T21:05:20.203Z,10.85
2017-10-16T21:07:46.426Z,10.72
2017-10-16T21:10:12.632Z,10.61
2017-10-16T21:12:38.848Z,10.62
2017-10-16T21:15:05.045Z,10.59
2017-10-16T21:17:31.289Z,10.54
2017-10-16T21:19:57.467Z,10.60
2017-10-16T21:22:23.680Z,10.52
2017-10-16T21:24:49.906Z,10.50
2017-10-16T21:27:16.123Z,10.53
2017-10-16T21:29:42.372Z,10.37
2017-10-16T21:32:08.555Z,10.37
2017-10-16T21:34:34.760Z,10.36
2017-10-16T21:37:00.998Z,10.37
2017-10-16T21:39:27.238Z,10.31
2017-10-16T21:41:53.438Z,10.23
2017-10-16T21:44:19.670Z,10.23
2017-10-16T21:46:45.874Z,10.31
2017-10-16T21:49:12.105Z,10.41
2017-10-16T21:51:38.291Z,10.33
2017-10-16T21:54:04.518Z,10.23
2017-10-16T21:56:30.730Z,10.26
2017-10-16T21:58:56.934Z,10.20
2017-10-16T22:01:23.166Z,10.19
2017-10-16T22:03:49.385Z,10.14
2017-10-16T22:06:15.712Z,10.14
2017-10-16T22:08:41.915Z,10.18
2017-10-16T22:11:08.262Z,10.34
2017-10-16T22:13:34.469Z,10.26
2017-10-16T22:16:00.783Z,10.16
2017-10-16T22:18:27.017Z,10.12
2017-10-16T22:20:53.230Z,10.06
2017-10-16T22:23:19.439Z,10.02
2017-10-16T22:25:45.686Z,9.95
2017-10-16T22:28:11.943Z,9.88
2017-10-16T22:30:38.212Z,9.78
2017-10-16T22:33:04.479Z,9.86
2017-10-16T22:35:30.748Z,9.80
2017-10-16T22:37:57.046Z,9.74
2017-10-16T22:40:23.323Z,9.66
2017-10-16T22:42:49.585Z,9.69
2017-10-16T22:45:15.862Z,9.65
2017-10-16T22:47:42.127Z,9.52
2017-10-16T22:50:08.460Z,9.49
2017-10-16T22:52:34.715Z,9.55
2017-10-16T22:55:00.992Z,9.49
2017-10-16T22:57:27.267Z,9.46
2017-10-16T22:59:53.514Z,9.39
2017-10-16T23:02:19.822Z,9.38
2017-10-16T23:04:46.097Z,9.39
2017-10-16T23:07:12.358Z,9.34
2017-10-16T23:09:38.751Z,9.28
2017-10-16T23:12:05.004Z,9.39
2017-10-16T23:14:31.324Z,9.33
2017-10-16T23:16:57.573Z,9.27
2017-10-16T23:19:23.817Z,9.24
2017-10-16T23:21:50.073Z,9.40
2017-10-16T23:24:16.341Z,9.41
2017-10-16T23:26:42.624Z,9.31
2017-10-16T23:29:08.897Z,9.22
2017-10-16T23:31:35.149Z,9.21
2017-10-16T23:34:01.412Z,9.19
2017-10-16T23:36:27.669Z,9.12
2017-10-16T23:38:53.968Z,9.14
2017-10-16T23:41:20.237Z,9.27
2017-10-16T23:43:46.496Z,9.17
2017-10-16T23:46:12.782Z,9.12
2017-10-16T23:48:39.076Z,9.02
2017-10-16T23:51:05.359Z,9.03
2017-10-16T23:53:31.646Z,8.98
2017-10-16T23:55:57.950Z,9.00
2017-10-16T23:58:24.211Z,8.95
